createdAt,value
2024-02-10T00:00:17.771Z,1.60
2024-02-10T00:02:45.989Z,1.67
2024-02-10T00:05:15.090Z,1.70
2024-02-10T00:07:47.283Z,1.85
2024-02-10T00:10:15.336Z,1.92
2024-02-10T00:12:43.205Z,1.52
2024-02-10T00:15:14.317Z,1.77
2024-02-10T00:17:42.273Z,1.77
2024-02-10T00:20:14.663Z,1.60
2024-02-10T00:22:42.669Z,1.65
2024-02-10T00:25:11.099Z,1.63
2024-02-10T00:27:39.318Z,1.85
2024-02-10T00:30:09.174Z,1.88
2024-02-10T00:32:38.843Z,1.63
2024-02-10T00:35:07.782Z,1.80
2024-02-10T00:37:36.234Z,1.67
2024-02-10T00:40:05.624Z,1.88
2024-02-10T00:42:33.447Z,1.85
2024-02-10T00:45:01.669Z,1.65
2024-02-10T00:47:30.150Z,1.90
2024-02-10T00:50:01.473Z,1.55
2024-02-10T00:52:29.539Z,1.50
2024-02-10T00:54:58.352Z,2.03
2024-02-10T00:57:30.128Z,1.70
2024-02-10T00:59:58.662Z,1.70
2024-02-10T01:02:26.489Z,1.35
2024-02-10T01:04:55.777Z,1.75
2024-02-10T01:07:26.186Z,1.60
2024-02-10T01:12:21.816Z,1.85
2024-02-10T01:14:51.828Z,1.60
2024-02-10T01:17:19.711Z,1.80
2024-02-10T01:19:51.109Z,1.65
2024-02-10T01:22:23.439Z,1.60
2024-02-10T01:24:55.904Z,1.80
2024-02-10T01:27:26.459Z,1.70
2024-02-10T01:32:24.288Z,1.50
2024-02-10T01:34:54.881Z,1.92
2024-02-10T01:37:23.588Z,1.75
2024-02-10T01:39:55.033Z,1.65
2024-02-10T01:42:28.658Z,1.45
2024-02-10T01:44:59.193Z,1.73
2024-02-10T01:49:55.123Z,1.60
2024-02-10T01:52:23.242Z,1.55
2024-02-10T01:54:52.392Z,1.55
2024-02-10T01:57:21.657Z,1.50
2024-02-10T01:59:49.793Z,1.73
2024-02-10T02:02:17.676Z,1.58
2024-02-10T02:04:46.293Z,1.40
2024-02-10T02:07:15.150Z,1.63
2024-02-10T02:09:44.394Z,1.60
2024-02-10T02:12:13.666Z,1.95
2024-02-10T02:14:43.182Z,1.30
2024-02-10T02:17:11.652Z,1.65
2024-02-10T02:19:43.558Z,1.67
2024-02-10T02:22:11.452Z,1.55
2024-02-10T02:24:40.598Z,1.70
2024-02-10T02:27:10.354Z,1.50
2024-02-10T02:29:38.451Z,1.55
2024-02-10T02:32:06.792Z,1.52
2024-02-10T02:34:35.507Z,1.85
2024-02-10T02:37:04.637Z,1.48
2024-02-10T02:39:35.200Z,1.67
2024-02-10T02:42:06.963Z,1.38
2024-02-10T02:44:35.389Z,1.70
2024-02-10T02:47:06.657Z,1.60
2024-02-10T02:49:35.527Z,1.58
2024-02-10T02:52:05.835Z,1.40
2024-02-10T02:54:35.094Z,1.75
2024-02-10T02:57:06.063Z,1.45
2024-02-10T02:59:33.868Z,2.00
2024-02-10T03:02:03.606Z,1.45
2024-02-10T03:04:31.634Z,1.85
2024-02-10T03:07:00.450Z,1.60
2024-02-10T03:09:28.697Z,1.80
2024-02-10T03:11:56.499Z,1.55
2024-02-10T03:14:25.627Z,1.70
2024-02-10T03:16:53.550Z,1.60
2024-02-10T03:19:21.520Z,1.60
2024-02-10T03:21:49.422Z,1.65
2024-02-10T03:24:17.739Z,1.55
2024-02-10T03:26:45.570Z,1.88
2024-02-10T03:29:14.317Z,1.67
2024-02-10T03:31:45.090Z,1.98
2024-02-10T03:34:13.156Z,1.60
2024-02-10T03:36:41.175Z,1.75
2024-02-10T03:39:10.524Z,1.83
2024-02-10T03:41:38.331Z,1.25
2024-02-10T03:44:06.226Z,1.58
2024-02-10T03:46:34.183Z,2.05
2024-02-10T03:49:03.454Z,1.80
2024-02-10T03:51:32.085Z,1.50
2024-02-10T03:53:59.867Z,2.10
2024-02-10T03:56:28.826Z,1.75
2024-02-10T03:58:57.269Z,1.65
2024-02-10T04:01:25.238Z,1.90
2024-02-10T04:03:57.064Z,1.90
2024-02-10T04:06:26.336Z,1.60
2024-02-10T04:08:54.672Z,1.40
2024-02-10T04:11:24.699Z,1.50
2024-02-10T04:13:53.711Z,1.88
2024-02-10T04:16:21.767Z,2.00
2024-02-10T04:18:50.588Z,1.80
2024-02-10T04:21:18.482Z,1.73
2024-02-10T04:23:47.572Z,1.77
2024-02-10T04:26:15.572Z,1.83
2024-02-10T04:28:43.388Z,1.83
2024-02-10T04:31:12.867Z,1.55
2024-02-10T04:33:43.376Z,1.80
2024-02-10T04:36:13.943Z,2.00
2024-02-10T04:41:10.791Z,2.05
2024-02-10T04:43:38.681Z,1.55
2024-02-10T04:46:06.584Z,1.88
2024-02-10T04:48:34.401Z,1.90
2024-02-10T04:51:02.276Z,1.75
2024-02-10T04:53:30.185Z,1.88
2024-02-10T04:55:58.070Z,1.83
2024-02-10T04:58:27.192Z,1.80
2024-02-10T05:00:55.030Z,1.90
2024-02-10T05:03:22.861Z,1.83
2024-02-10T05:05:51.930Z,2.05
2024-02-10T05:08:19.836Z,1.63
2024-02-10T05:10:47.664Z,2.40
2024-02-10T05:13:17.018Z,1.80
2024-02-10T05:15:46.300Z,2.25
2024-02-10T05:18:14.291Z,1.75
2024-02-10T05:20:44.881Z,1.67
2024-02-10T05:23:13.020Z,1.88
2024-02-10T05:25:40.858Z,1.83
2024-02-10T05:28:09.093Z,1.73
2024-02-10T05:30:36.903Z,2.20
2024-02-10T05:33:06.982Z,1.70
2024-02-10T05:35:35.131Z,1.98
2024-02-10T05:38:05.269Z,1.73
2024-02-10T05:43:05.664Z,2.03
2024-02-10T05:45:34.268Z,1.92
2024-02-10T05:48:02.301Z,1.80
2024-02-10T05:50:33.547Z,1.75
2024-02-10T05:53:01.535Z,1.98
2024-02-10T05:55:30.684Z,1.60
2024-02-10T05:58:02.753Z,1.73
2024-02-10T06:00:30.910Z,1.70
2024-02-10T06:03:00.608Z,1.40
2024-02-10T06:05:29.925Z,1.80
2024-02-10T06:08:01.578Z,1.80
2024-02-10T06:10:29.521Z,1.40
2024-02-10T06:12:59.836Z,1.40
2024-02-10T06:17:58.299Z,1.50
2024-02-10T06:20:27.165Z,1.75
2024-02-10T06:22:56.830Z,1.50
2024-02-10T06:25:28.149Z,1.55
2024-02-10T06:27:58.097Z,1.73
2024-02-10T06:30:29.102Z,1.35
2024-02-10T06:32:57.389Z,1.75
2024-02-10T06:35:25.955Z,2.03
2024-02-10T06:37:56.158Z,1.60
2024-02-10T06:40:25.084Z,1.55
2024-02-10T06:42:54.846Z,1.35
2024-02-10T06:45:25.413Z,1.88
2024-02-10T06:47:53.998Z,1.98
2024-02-10T06:50:25.191Z,1.70
2024-02-10T06:52:53.696Z,1.38
2024-02-10T06:55:21.905Z,1.67
2024-02-10T06:57:53.923Z,1.40
2024-02-10T07:00:24.734Z,1.20
2024-02-10T07:02:52.855Z,1.50
2024-02-10T07:05:24.155Z,1.67
2024-02-10T07:07:52.371Z,2.20
2024-02-10T07:10:21.848Z,1.60
2024-02-10T07:12:51.127Z,2.00
2024-02-10T07:15:20.471Z,1.52
2024-02-10T07:17:52.173Z,2.03
2024-02-10T07:20:21.565Z,1.70
2024-02-10T07:22:51.075Z,1.63
2024-02-10T07:25:19.325Z,1.65
2024-02-10T07:27:48.304Z,1.75
2024-02-10T07:30:18.676Z,1.80
2024-02-10T07:32:46.822Z,2.00
2024-02-10T07:35:17.116Z,1.60
2024-02-10T07:37:46.247Z,1.80
2024-02-10T07:40:14.640Z,1.35
2024-02-10T07:42:42.789Z,1.70
2024-02-10T07:45:12.184Z,2.08
2024-02-10T07:47:40.134Z,1.92
2024-02-10T07:50:09.439Z,1.88
2024-02-10T07:52:39.337Z,1.98
2024-02-10T07:55:10.802Z,2.00
2024-02-10T07:57:38.636Z,1.90
2024-02-10T08:00:10.642Z,1.70
2024-02-10T08:02:39.017Z,2.00
2024-02-10T08:05:07.608Z,1.90
2024-02-10T08:07:35.632Z,1.88
2024-02-10T08:10:08.060Z,2.13
2024-02-10T08:12:37.004Z,1.65
2024-02-10T08:15:05.383Z,1.85
2024-02-10T08:17:33.484Z,1.65
2024-02-10T08:20:02.283Z,2.20
2024-02-10T08:22:32.389Z,1.65
2024-02-10T08:27:33.313Z,1.85
2024-02-10T08:30:03.947Z,2.05
2024-02-10T08:32:33.117Z,3.00
2024-02-10T08:35:03.715Z,2.85
2024-02-10T08:37:34.954Z,2.60
2024-02-10T08:40:04.804Z,2.45
2024-02-10T08:42:36.220Z,2.58
2024-02-10T08:45:06.369Z,2.85
2024-02-10T08:47:34.285Z,2.22
2024-02-10T08:50:03.008Z,3.00
2024-02-10T08:52:31.756Z,2.35
2024-02-10T08:55:00.547Z,2.90
2024-02-10T08:57:28.408Z,2.35
2024-02-10T08:59:57.528Z,2.47
2024-02-10T09:02:25.303Z,2.30
2024-02-10T09:04:55.400Z,2.63
2024-02-10T09:07:23.317Z,2.17
2024-02-10T09:09:51.358Z,2.53
2024-02-10T09:12:19.221Z,2.65
2024-02-10T09:14:48.517Z,2.40
2024-02-10T09:17:17.692Z,3.00
2024-02-10T09:19:45.953Z,2.58
2024-02-10T09:22:15.621Z,2.45
2024-02-10T09:24:43.592Z,2.80
2024-02-10T09:27:11.580Z,3.00
2024-02-10T09:29:39.813Z,2.92
2024-02-10T09:32:08.371Z,2.65
2024-02-10T09:34:37.509Z,3.42
2024-02-10T09:37:05.692Z,3.40
2024-02-10T09:39:35.065Z,3.28
2024-02-10T09:42:06.618Z,3.67
2024-02-10T09:44:36.654Z,2.85
2024-02-10T09:47:09.213Z,2.95
2024-02-10T09:49:42.539Z,3.25
2024-02-10T09:52:10.485Z,5.03
2024-02-10T09:54:40.441Z,5.43
2024-02-10T09:57:13.553Z,4.20
2024-02-10T09:59:43.452Z,3.63
2024-02-10T10:02:13.754Z,3.47
2024-02-10T10:09:39.519Z,3.88
2024-02-10T10:12:11.363Z,3.40
2024-02-10T10:14:40.753Z,3.42
2024-02-10T10:17:15.018Z,2.90
2024-02-10T10:19:45.666Z,3.13
2024-02-10T10:22:16.450Z,2.75
2024-02-10T10:24:44.352Z,3.42
2024-02-10T10:27:12.146Z,3.83
2024-02-10T10:29:41.172Z,4.88
2024-02-10T10:32:11.020Z,3.58
2024-02-10T10:34:40.831Z,3.47
2024-02-10T10:37:13.740Z,3.72
2024-02-10T10:39:42.699Z,3.30
2024-02-10T10:42:14.559Z,3.08
2024-02-10T10:44:43.924Z,2.83
2024-02-10T10:47:12.098Z,2.90
2024-02-10T10:49:40.128Z,2.92
2024-02-10T10:52:12.351Z,3.00
2024-02-10T10:54:40.985Z,3.42
2024-02-10T10:57:17.229Z,3.15
2024-02-10T10:59:50.747Z,3.08
2024-02-10T11:02:26.611Z,3.67
2024-02-10T11:05:07.052Z,4.05
2024-02-10T11:07:38.332Z,4.72
2024-02-10T11:10:07.136Z,5.28
2024-02-10T11:12:36.054Z,4.90
2024-02-10T11:15:06.063Z,5.70
2024-02-10T11:17:36.533Z,5.00
2024-02-10T11:20:08.854Z,4.78
2024-02-10T11:22:38.702Z,5.03
2024-02-10T11:25:16.441Z,5.22
2024-02-10T11:27:48.463Z,5.90
2024-02-10T11:32:47.158Z,5.43
2024-02-10T11:35:15.152Z,4.65
2024-02-10T11:37:44.415Z,5.13
2024-02-10T11:40:21.243Z,4.85
2024-02-10T11:42:49.247Z,4.88
2024-02-10T11:45:20.917Z,4.68
2024-02-10T11:47:54.350Z,4.80
2024-02-10T11:50:22.673Z,3.90
2024-02-10T11:52:54.420Z,4.30
2024-02-10T11:55:22.423Z,4.70
2024-02-10T11:57:50.468Z,4.53
2024-02-10T12:00:20.392Z,4.93
2024-02-10T12:02:52.919Z,4.05
2024-02-10T12:05:22.093Z,4.82
2024-02-10T12:07:53.342Z,4.53
2024-02-10T12:10:21.208Z,5.10
2024-02-10T12:12:53.660Z,6.28
2024-02-10T12:15:22.083Z,5.05
2024-02-10T12:17:49.924Z,5.47
2024-02-10T12:20:19.911Z,5.05
2024-02-10T12:22:48.463Z,4.68
2024-02-10T12:25:18.748Z,4.75
2024-02-10T12:30:15.248Z,4.18
2024-02-10T12:32:43.468Z,5.00
2024-02-10T12:35:14.425Z,4.78
2024-02-10T12:37:46.214Z,4.80
2024-02-10T12:40:14.754Z,4.43
2024-02-10T12:42:44.418Z,4.38
2024-02-10T12:45:14.534Z,4.10
2024-02-10T12:47:43.386Z,4.53
2024-02-10T12:50:11.797Z,4.32
2024-02-10T12:52:41.094Z,4.82
2024-02-10T12:55:14.905Z,4.10
2024-02-10T12:57:44.962Z,3.90
2024-02-10T13:00:22.973Z,4.88
2024-02-10T13:02:51.817Z,4.15
2024-02-10T13:05:21.728Z,4.20
2024-02-10T13:07:49.797Z,5.10
2024-02-10T13:10:30.032Z,3.65
2024-02-10T13:13:01.073Z,4.22
2024-02-10T13:15:28.900Z,4.05
2024-02-10T13:17:58.344Z,4.03
2024-02-10T13:20:28.142Z,4.82
2024-02-10T13:22:58.189Z,3.97
2024-02-10T13:25:27.232Z,4.45
2024-02-10T13:27:57.129Z,3.85
2024-02-10T13:30:26.438Z,3.92
2024-02-10T13:32:57.058Z,4.13
2024-02-10T13:35:28.326Z,3.63
2024-02-10T13:38:14.640Z,4.00
2024-02-10T13:41:00.185Z,3.88
2024-02-10T13:43:45.839Z,3.70
2024-02-10T13:46:32.738Z,3.72
2024-02-10T13:49:18.196Z,3.67
2024-02-10T13:52:03.589Z,3.78
2024-02-10T13:54:49.071Z,4.00
2024-02-10T13:57:34.663Z,3.63
2024-02-10T14:00:25.126Z,3.47
2024-02-10T14:03:01.856Z,3.28
2024-02-10T14:05:56.952Z,4.07
2024-02-10T14:08:43.441Z,3.08
2024-02-10T14:11:21.093Z,3.88
2024-02-10T14:13:52.807Z,3.70
2024-02-10T14:16:28.931Z,3.42
2024-02-10T14:19:00.764Z,3.30
2024-02-10T14:21:33.967Z,3.08
2024-02-10T14:24:02.517Z,3.58
2024-02-10T14:26:40.895Z,3.60
2024-02-10T14:29:20.726Z,4.05
2024-02-10T14:31:52.104Z,3.30
2024-02-10T14:34:38.491Z,3.28
2024-02-10T14:37:28.115Z,3.38
2024-02-10T14:39:58.269Z,3.60
2024-02-10T14:42:27.035Z,3.35
2024-02-10T14:44:55.508Z,3.05
2024-02-10T14:47:25.395Z,3.03
2024-02-10T14:49:55.065Z,2.85
2024-02-10T14:52:24.469Z,3.55
2024-02-10T14:54:53.836Z,2.65
2024-02-10T14:57:22.833Z,3.15
2024-02-10T14:59:51.999Z,3.45
2024-02-10T15:02:23.945Z,3.58
2024-02-10T15:04:52.317Z,2.95
2024-02-10T15:07:23.415Z,3.15
2024-02-10T15:09:51.998Z,3.20
2024-02-10T15:12:19.931Z,3.10
2024-02-10T15:14:48.468Z,2.80
2024-02-10T15:17:17.978Z,3.17
2024-02-10T15:19:46.806Z,3.47
2024-02-10T15:22:16.283Z,3.20
2024-02-10T15:24:45.668Z,3.47
2024-02-10T15:27:16.601Z,3.65
2024-02-10T15:29:44.681Z,3.17
2024-02-10T15:32:12.865Z,3.13
2024-02-10T15:34:48.508Z,2.72
2024-02-10T15:37:24.983Z,3.00
2024-02-10T15:39:54.327Z,2.65
2024-02-10T15:42:22.156Z,2.95
2024-02-10T15:44:49.969Z,2.90
2024-02-10T15:47:19.583Z,2.53
2024-02-10T15:49:47.983Z,2.67
2024-02-10T15:52:20.619Z,2.72
2024-02-10T15:54:48.659Z,3.00
2024-02-10T15:57:18.974Z,2.72
2024-02-10T15:59:48.065Z,2.45
2024-02-10T16:02:18.298Z,3.03
2024-02-10T16:04:47.433Z,2.35
2024-02-10T16:07:15.384Z,2.78
2024-02-10T16:09:45.575Z,2.42
2024-02-10T16:12:13.456Z,2.30
2024-02-10T16:14:42.624Z,2.53
2024-02-10T16:17:13.202Z,2.20
2024-02-10T16:19:50.036Z,2.95
2024-02-10T16:22:18.179Z,2.70
2024-02-10T16:24:47.535Z,2.70
2024-02-10T16:27:15.342Z,2.83
2024-02-10T16:29:46.492Z,2.75
2024-02-10T16:32:14.334Z,3.17
2024-02-10T16:34:51.575Z,3.10
2024-02-10T16:37:19.680Z,2.90
2024-02-10T16:39:49.036Z,2.92
2024-02-10T16:42:17.719Z,3.08
2024-02-10T16:44:47.976Z,4.38
2024-02-10T16:47:15.893Z,3.25
2024-02-10T16:49:43.782Z,3.20
2024-02-10T16:52:11.597Z,3.13
2024-02-10T16:54:41.152Z,3.17
2024-02-10T16:57:08.953Z,3.05
2024-02-10T16:59:36.737Z,3.53
2024-02-10T17:02:07.810Z,3.47
2024-02-10T17:04:35.935Z,3.40
2024-02-10T17:07:04.010Z,3.40
2024-02-10T17:09:32.876Z,3.10
2024-02-10T17:12:00.680Z,2.65
2024-02-10T17:14:30.812Z,2.97
2024-02-10T17:16:58.680Z,2.72
2024-02-10T17:19:28.137Z,2.50
2024-02-10T17:21:56.177Z,2.88
2024-02-10T17:24:25.004Z,2.90
2024-02-10T17:26:53.733Z,2.63
2024-02-10T17:29:22.768Z,2.55
2024-02-10T17:31:51.535Z,2.70
2024-02-10T17:34:20.570Z,2.63
2024-02-10T17:36:50.617Z,2.55
2024-02-10T17:39:19.105Z,2.85
2024-02-10T17:41:47.425Z,2.60
2024-02-10T17:44:16.416Z,3.35
2024-02-10T17:46:49.387Z,1.98
2024-02-10T17:49:18.648Z,2.47
2024-02-10T17:51:47.245Z,2.15
2024-02-10T17:54:20.751Z,2.55
2024-02-10T17:56:49.964Z,2.38
2024-02-10T17:59:24.878Z,2.78
2024-02-10T18:01:56.466Z,2.33
2024-02-10T18:04:25.014Z,2.10
2024-02-10T18:06:53.373Z,2.67
2024-02-10T18:09:22.545Z,2.03
2024-02-10T18:11:50.410Z,2.22
2024-02-10T18:14:18.507Z,2.78
2024-02-10T18:16:47.214Z,3.00
2024-02-10T18:19:15.266Z,2.65
2024-02-10T18:21:44.721Z,2.83
2024-02-10T18:24:12.710Z,2.30
2024-02-10T18:26:41.970Z,2.78
2024-02-10T18:29:09.873Z,3.58
2024-02-10T18:31:37.747Z,3.17
2024-02-10T18:34:06.793Z,3.88
2024-02-10T18:36:35.201Z,4.07
2024-02-10T18:39:02.169Z,4.40
2024-02-10T18:41:30.068Z,4.30
2024-02-10T18:44:02.364Z,3.70
2024-02-10T18:46:32.362Z,3.55
2024-02-10T18:49:01.184Z,4.07
2024-02-10T18:51:29.536Z,4.10
2024-02-10T18:53:58.241Z,4.22
2024-02-10T18:56:26.209Z,3.78
2024-02-10T18:58:54.891Z,3.60
2024-02-10T19:01:26.631Z,3.75
2024-02-10T19:03:55.832Z,3.33
2024-02-10T19:06:24.895Z,3.05
2024-02-10T19:08:54.965Z,3.75
2024-02-10T19:13:51.103Z,5.45
2024-02-10T19:16:19.011Z,5.00
2024-02-10T19:18:49.920Z,4.50
2024-02-10T19:21:17.900Z,6.22
2024-02-10T19:23:49.229Z,4.80
2024-02-10T19:26:19.093Z,5.13
2024-02-10T19:28:49.057Z,4.80
2024-02-10T19:31:18.762Z,4.55
2024-02-10T19:33:49.068Z,4.38
2024-02-10T19:36:17.483Z,4.80
2024-02-10T19:38:45.692Z,3.67
2024-02-10T19:41:17.896Z,3.95
2024-02-10T19:43:46.770Z,3.65
2024-02-10T19:46:16.216Z,3.72
2024-02-10T19:48:48.143Z,7.45
2024-02-10T19:51:20.339Z,29.08
2024-02-10T19:53:48.752Z,27.17
2024-02-10T19:56:17.980Z,27.42
2024-02-10T19:58:49.354Z,23.25
2024-02-10T20:01:20.482Z,22.58
2024-02-10T20:03:48.363Z,20.98
2024-02-10T20:06:18.083Z,21.38
2024-02-10T20:08:46.391Z,19.55
2024-02-10T20:11:14.388Z,19.48
2024-02-10T20:13:42.432Z,20.65
2024-02-10T20:16:12.235Z,25.08
2024-02-10T20:18:40.229Z,28.05
2024-02-10T20:21:08.067Z,26.30
2024-02-10T20:23:39.393Z,24.75
2024-02-10T20:26:12.644Z,23.70
2024-02-10T20:28:42.541Z,22.42
2024-02-10T20:31:17.942Z,21.98
2024-02-10T20:33:52.690Z,21.95
2024-02-10T20:36:23.642Z,20.67
2024-02-10T20:38:52.987Z,38.28
2024-02-10T20:41:21.646Z,34.38
2024-02-10T20:43:49.665Z,32.60
2024-02-10T20:46:17.938Z,30.05
2024-02-10T20:48:46.067Z,27.65
2024-02-10T20:51:16.349Z,26.65
2024-02-10T20:56:16.526Z,22.25
2024-02-10T20:58:44.710Z,21.92
2024-02-10T21:01:13.189Z,21.83
2024-02-10T21:03:41.299Z,20.75
2024-02-10T21:06:09.714Z,17.95
2024-02-10T21:08:38.650Z,19.02
2024-02-10T21:11:06.988Z,17.48
2024-02-10T21:13:36.468Z,14.73
2024-02-10T21:16:09.675Z,16.10
2024-02-10T21:18:38.740Z,13.48
2024-02-10T21:21:06.943Z,12.70
2024-02-10T21:23:35.837Z,11.90
2024-02-10T21:26:04.631Z,10.65
2024-02-10T21:28:34.859Z,10.55
2024-02-10T21:33:34.930Z,8.75
2024-02-10T21:36:02.887Z,8.85
2024-02-10T21:38:30.687Z,9.52
2024-02-10T21:40:58.689Z,9.00
2024-02-10T21:43:26.523Z,7.85
2024-02-10T21:45:55.680Z,7.90
2024-02-10T21:48:25.057Z,8.68
2024-02-10T21:50:52.981Z,7.32
2024-02-10T21:53:21.078Z,7.10
2024-02-10T21:55:51.514Z,7.03
2024-02-10T21:58:19.652Z,7.18
2024-02-10T22:00:48.875Z,6.95
2024-02-10T22:03:16.899Z,6.25
2024-02-10T22:05:46.076Z,5.60
2024-02-10T22:08:15.094Z,6.32
2024-02-10T22:10:43.172Z,5.90
2024-02-10T22:13:11.210Z,5.50
2024-02-10T22:15:39.053Z,5.35
2024-02-10T22:18:13.889Z,5.40
2024-02-10T22:20:44.477Z,4.30
2024-02-10T22:23:15.057Z,4.40
2024-02-10T22:25:45.920Z,5.00
2024-02-10T22:28:14.356Z,4.55
2024-02-10T22:30:42.237Z,4.55
2024-02-10T22:33:10.161Z,4.28
2024-02-10T22:35:38.839Z,4.30
2024-02-10T22:38:08.727Z,4.13
2024-02-10T22:40:41.587Z,4.28
2024-02-10T22:43:10.762Z,5.00
2024-02-10T22:45:39.848Z,4.32
2024-02-10T22:48:12.268Z,4.35
2024-02-10T22:50:43.410Z,3.90
2024-02-10T22:53:14.565Z,4.90
2024-02-10T22:55:45.799Z,3.83
2024-02-10T22:58:15.836Z,3.85
2024-02-10T23:00:45.354Z,4.22
2024-02-10T23:03:13.628Z,3.97
2024-02-10T23:05:42.714Z,4.07
2024-02-10T23:08:14.213Z,3.83
2024-02-10T23:10:42.179Z,3.35
2024-02-10T23:13:16.844Z,3.40
2024-02-10T23:15:44.916Z,3.53
2024-02-10T23:18:14.044Z,3.90
2024-02-10T23:20:48.239Z,4.05
2024-02-10T23:23:19.433Z,3.38
2024-02-10T23:25:49.338Z,3.25
2024-02-10T23:28:19.525Z,3.53
2024-02-10T23:30:51.250Z,3.60
2024-02-10T23:33:20.940Z,3.40
2024-02-10T23:35:49.082Z,3.50
2024-02-10T23:38:17.096Z,3.53
2024-02-10T23:40:45.900Z,3.13
2024-02-10T23:43:14.849Z,3.58
2024-02-10T23:45:45.295Z,3.30
2024-02-10T23:48:13.268Z,3.40
2024-02-10T23:50:42.440Z,3.35
2024-02-10T23:53:11.340Z,3.03
2024-02-10T23:55:42.978Z,2.97
2024-02-10T23:58:12.542Z,3.00
